Time;durP1;ratioP1;P1;durP2;ratioP2;P2;SDS_P1;SDS_P2;PMS_P1;PMS_P2;Temp;Humidity;BMP_temperature;BMP_pressure;BME280_temperature;BME280_humidity;BME280_pressure;Samples;Min_cycle;Max_cycle;Signal;HPM_P1;HPM_P2
2021/08/23 00:00:02;;;;;;;;;;;;;;;15.90;85.85;100000.38;5031299;28;823;-60
2021/08/23 00:02:29;;;;;;;;;;;;;;;15.85;86.07;99989.75;5031274;28;893;-60
2021/08/23 00:04:56;;;;;;;;;;;;;;;15.79;86.22;99991.47;5031304;28;885;-60
2021/08/23 00:07:22;;;;;;;;;;;;;;;15.70;86.36;99992.03;5031146;28;1961;-60
2021/08/23 00:09:50;;;;;;;;;;;;;;;15.60;86.67;99990.31;5031183;28;884;-60
2021/08/23 00:12:16;;;;;;;;;;;;;;;15.54;87.02;99984.44;5031200;28;834;-60
2021/08/23 00:14:43;;;;;;;;;;;;;;;15.54;86.95;99980.88;5031106;28;899;-60
2021/08/23 00:17:09;;;;;;;;;;;;;;;15.43;86.47;99984.69;5033756;28;1222;-60
2021/08/23 00:19:36;;;;;;;;;;;;;;;15.25;86.11;99985.06;5034894;28;845;-60
2021/08/23 00:22:19;;;;;;;;;;;;;;;15.15;86.83;99977.75;5034794;28;868;-60
2021/08/23 00:24:47;;;;;;;;;;;;;;;15.07;87.09;99973.53;5034795;28;877;-60
2021/08/23 00:27:13;;;;;;;;;;;;;;;15.10;87.29;99972.66;5034628;28;1914;-59
2021/08/23 00:29:40;;;;;;;;;;;;;;;15.05;87.13;99970.38;5034639;28;877;-59
2021/08/23 00:32:06;;;;;;;;;;;;;;;15.03;87.17;99958.91;5034663;28;878;-59
2021/08/23 00:34:33;;;;;;;;;;;;;;;14.96;87.41;99965.41;5034625;28;893;-60
2021/08/23 00:37:00;;;;;;;;;;;;;;;14.88;87.29;99967.53;5034724;28;881;-60
2021/08/23 00:39:26;;;;;;;;;;;;;;;14.78;87.36;99962.94;5034554;28;898;-60
2021/08/23 00:41:53;;;;;;;;;;;;;;;14.71;87.67;99960.31;5034482;28;814;-59
2021/08/23 00:44:19;;;;;;;;;;;;;;;14.80;88.08;99959.75;5034533;28;830;-60
2021/08/23 00:46:46;;;;;;;;;;;;;;;14.89;88.40;99957.97;5034344;28;878;-60
2021/08/23 00:49:13;;;;;;;;;;;;;;;15.10;88.30;99961.53;5034335;28;1944;-60
2021/08/23 00:51:40;;;;;;;;;;;;;;;15.23;87.81;99956.84;5034225;28;830;-60
2021/08/23 00:54:07;;;;;;;;;;;;;;;15.30;87.31;99964.28;5034329;28;834;-60
2021/08/23 00:56:33;;;;;;;;;;;;;;;15.29;87.32;99952.34;5034107;28;826;-60
2021/08/23 00:59:00;;;;;;;;;;;;;;;15.25;87.25;99951.66;5034256;28;866;-60
2021/08/23 01:01:26;;;;;;;;;;;;;;;15.23;87.41;99954.06;5034021;28;835;-60
2021/08/23 01:04:19;;;;;;;;;;;;;;;15.25;87.38;99940.50;5034041;28;826;-60
2021/08/23 01:06:46;;;;;;;;;;;;;;;15.30;87.25;99944.81;5031532;28;990;-60
2021/08/23 01:09:14;;;;;;;;;;;;;;;15.22;86.86;99949.72;5034104;28;1874;-59
2021/08/23 01:11:51;;;;;;;;;;;;;;;15.12;86.97;99942.38;5032723;28;904;-59
2021/08/23 01:14:18;;;;;;;;;;;;;;;15.02;87.21;99933.06;5034132;28;818;-60
2021/08/23 01:16:45;;;;;;;;;;;;;;;15.04;87.44;99935.41;5033929;28;1177;-59
2021/08/23 01:19:12;;;;;;;;;;;;;;;14.97;87.18;99933.56;5034119;28;905;-59
2021/08/23 01:21:39;;;;;;;;;;;;;;;14.88;87.28;99930.56;5033871;28;954;-60
2021/08/23 01:24:08;;;;;;;;;;;;;;;14.85;87.70;99928.63;5033897;28;866;-59
2021/08/23 01:26:39;;;;;;;;;;;;;;;14.88;87.80;99928.56;5033082;28;888;-60
2021/08/23 01:29:09;;;;;;;;;;;;;;;14.98;87.72;99937.13;5033569;28;1973;-60
2021/08/23 01:31:53;;;;;;;;;;;;;;;15.03;87.37;99929.06;5033656;28;890;-60
2021/08/23 01:34:21;;;;;;;;;;;;;;;15.04;87.21;99938.19;5033443;28;953;-60
2021/08/23 01:36:48;;;;;;;;;;;;;;;15.04;86.92;99929.84;5033400;28;838;-59
2021/08/23 01:39:15;;;;;;;;;;;;;;;15.05;87.30;99934.19;5033466;28;815;-59
2021/08/23 01:41:42;;;;;;;;;;;;;;;15.10;87.18;99928.13;5033365;28;811;-60
2021/08/23 01:44:08;;;;;;;;;;;;;;;15.09;86.62;99937.69;5033271;28;984;-60
2021/08/23 01:46:36;;;;;;;;;;;;;;;15.07;86.83;99934.56;5032050;28;936;-59
2021/08/23 01:49:04;;;;;;;;;;;;;;;15.04;86.84;99927.03;5033172;28;1945;-59
2021/08/23 01:51:30;;;;;;;;;;;;;;;15.01;86.67;99930.72;5033181;28;842;-60
2021/08/23 01:53:56;;;;;;;;;;;;;;;14.96;87.08;99929.22;5033125;28;818;-60
2021/08/23 01:56:26;;;;;;;;;;;;;;;14.97;86.85;99927.22;5033158;28;909;-60
2021/08/23 01:58:53;;;;;;;;;;;;;;;14.98;86.98;99920.41;5033077;28;871;-60
2021/08/23 02:01:20;;;;;;;;;;;;;;;15.00;86.93;99923.56;5032987;28;877;-59
2021/08/23 02:03:48;;;;;;;;;;;;;;;15.02;86.61;99924.72;5031606;28;1183;-60
2021/08/23 02:06:16;;;;;;;;;;;;;;;15.03;86.50;99925.50;5033144;28;886;-60
2021/08/23 02:08:43;;;;;;;;;;;;;;;15.02;86.37;99923.91;5032789;28;2249;-60
2021/08/23 02:11:10;;;;;;;;;;;;;;;15.04;86.48;99921.47;5032843;28;882;-59
2021/08/23 02:13:37;;;;;;;;;;;;;;;15.01;86.76;99919.56;5032668;28;885;-59
2021/08/23 02:16:04;;;;;;;;;;;;;;;14.99;86.42;99927.56;5032708;28;1277;-60
2021/08/23 02:18:31;;;;;;;;;;;;;;;14.96;86.12;99928.44;5032993;28;834;-60
2021/08/23 02:20:58;;;;;;;;;;;;;;;14.92;86.19;99922.16;5032530;28;854;-60
2021/08/23 02:23:25;;;;;;;;;;;;;;;14.93;86.36;99932.06;5032571;28;826;-60
2021/08/23 02:25:52;;;;;;;;;;;;;;;14.92;86.28;99922.16;5031150;28;802;-60
2021/08/23 02:28:19;;;;;;;;;;;;;;;14.90;86.09;99930.94;5032382;28;1910;-60
2021/08/23 02:30:45;;;;;;;;;;;;;;;14.87;86.16;99937.34;5032466;28;858;-60
2021/08/23 02:33:12;;;;;;;;;;;;;;;14.83;85.99;99936.63;5032401;28;815;-60
2021/08/23 02:35:38;;;;;;;;;;;;;;;14.76;86.01;99937.56;5032393;28;913;-60
2021/08/23 02:38:07;;;;;;;;;;;;;;;14.72;86.16;99934.06;5030550;28;1606;-60
2021/08/23 02:40:34;;;;;;;;;;;;;;;14.74;86.07;99939.97;5031995;28;869;-60
2021/08/23 02:43:00;;;;;;;;;;;;;;;14.69;86.07;99937.69;5032221;28;865;-60
2021/08/23 02:45:27;;;;;;;;;;;;;;;14.60;86.00;99935.50;5032255;28;853;-60
2021/08/23 02:47:54;;;;;;;;;;;;;;;14.53;86.03;99934.81;5031979;28;1952;-60
2021/08/23 02:50:21;;;;;;;;;;;;;;;14.44;86.15;99935.38;5032165;28;838;-59
2021/08/23 02:52:47;;;;;;;;;;;;;;;14.39;86.35;99942.19;5032061;28;889;-59
2021/08/23 02:55:13;;;;;;;;;;;;;;;14.39;86.56;99947.00;5032001;28;920;-59
2021/08/23 02:57:40;;;;;;;;;;;;;;;14.39;86.68;99950.53;5031947;28;865;-59
2021/08/23 03:00:08;;;;;;;;;;;;;;;14.41;86.68;99939.78;5032252;28;811;-59
2021/08/23 03:02:35;;;;;;;;;;;;;;;14.44;86.60;99941.69;5030582;28;1730;-59
2021/08/23 03:05:02;;;;;;;;;;;;;;;14.42;86.41;99946.13;5031860;28;803;-59
2021/08/23 03:07:28;;;;;;;;;;;;;;;14.36;86.68;99951.41;5031967;28;1890;-59
2021/08/23 03:09:56;;;;;;;;;;;;;;;14.34;86.75;99953.81;5031738;28;811;-59
2021/08/23 03:12:22;;;;;;;;;;;;;;;14.36;86.74;99945.03;5031824;28;783;-60
2021/08/23 03:14:49;;;;;;;;;;;;;;;14.39;86.82;99949.75;5031723;28;930;-60
2021/08/23 03:17:16;;;;;;;;;;;;;;;14.41;86.75;99953.69;5031445;28;1309;-60
2021/08/23 03:19:42;;;;;;;;;;;;;;;14.39;86.60;99950.53;5031724;28;890;-60
2021/08/23 03:22:09;;;;;;;;;;;;;;;14.37;86.74;99955.75;5031650;28;836;-59
2021/08/23 03:24:35;;;;;;;;;;;;;;;14.38;86.71;99956.53;5031800;28;838;-60
2021/08/23 03:27:02;;;;;;;;;;;;;;;14.29;86.36;99963.44;5031603;28;2003;-59
2021/08/23 03:29:29;;;;;;;;;;;;;;;14.19;86.36;99961.63;5031569;28;860;-59
2021/08/23 03:31:56;;;;;;;;;;;;;;;14.09;86.87;99957.81;5031601;28;846;-60
2021/08/23 03:34:22;;;;;;;;;;;;;;;14.12;87.08;99960.94;5031534;28;826;-60
2021/08/23 03:36:49;;;;;;;;;;;;;;;14.27;87.32;99962.28;5031517;28;826;-60
2021/08/23 03:39:16;;;;;;;;;;;;;;;14.36;87.07;99965.31;5031525;28;806;-59
2021/08/23 03:41:43;;;;;;;;;;;;;;;14.43;86.79;99961.63;5031555;28;829;-59
2021/08/23 03:44:10;;;;;;;;;;;;;;;14.44;86.65;99957.59;5031552;28;810;-59
2021/08/23 03:46:36;;;;;;;;;;;;;;;14.42;86.74;99963.63;5031322;28;1206;-59
2021/08/23 03:49:04;;;;;;;;;;;;;;;14.41;86.68;99964.81;5031373;28;1949;-59
2021/08/23 03:51:31;;;;;;;;;;;;;;;14.44;86.97;99971.50;5034964;28;774;-59
2021/08/23 03:53:58;;;;;;;;;;;;;;;14.43;86.73;99962.41;5035390;28;802;-59
2021/08/23 03:56:24;;;;;;;;;;;;;;;14.48;86.89;99952.78;5035264;28;842;-60
2021/08/23 03:58:51;;;;;;;;;;;;;;;14.59;86.72;99958.16;5035301;28;876;-59
2021/08/23 04:01:18;;;;;;;;;;;;;;;14.66;86.48;99958.03;5035264;28;870;-60
2021/08/23 04:03:44;;;;;;;;;;;;;;;14.78;86.22;99962.16;5035307;28;850;-60
2021/08/23 04:06:11;;;;;;;;;;;;;;;14.97;85.85;99955.03;5035160;28;802;-60
2021/08/23 04:08:39;;;;;;;;;;;;;;;15.12;85.38;99956.31;5035088;28;1894;-60
2021/08/23 04:11:06;;;;;;;;;;;;;;;15.20;85.20;99954.94;5035145;28;819;-59
2021/08/23 04:13:33;;;;;;;;;;;;;;;15.26;84.91;99958.03;5035271;28;890;-59
2021/08/23 04:16:00;;;;;;;;;;;;;;;15.26;84.79;99960.81;5034918;28;1375;-59
2021/08/23 04:18:27;;;;;;;;;;;;;;;15.24;84.69;99955.66;5035258;28;910;-59
2021/08/23 04:20:53;;;;;;;;;;;;;;;15.24;84.32;99961.22;5034979;28;803;-60
2021/08/23 04:23:20;;;;;;;;;;;;;;;15.25;84.49;99957.22;5034666;28;842;-59
2021/08/23 04:25:46;;;;;;;;;;;;;;;15.26;84.29;99961.59;5034868;28;866;-60
2021/08/23 04:28:12;;;;;;;;;;;;;;;15.32;84.07;99962.66;5034919;28;1977;-59
2021/08/23 04:30:39;;;;;;;;;;;;;;;15.41;83.79;99958.50;5034962;28;791;-60
2021/08/23 04:33:06;;;;;;;;;;;;;;;15.51;83.42;99954.66;5034956;28;806;-60
2021/08/23 04:35:32;;;;;;;;;;;;;;;15.62;83.16;99958.00;5034820;28;850;-60
2021/08/23 04:37:59;;;;;;;;;;;;;;;15.78;82.76;99959.25;5035471;28;763;-60
2021/08/23 04:40:26;;;;;;;;;;;;;;;15.95;82.18;99960.84;5034895;28;804;-60
2021/08/23 04:42:53;;;;;;;;;;;;;;;16.13;81.44;99969.56;5033614;28;1199;-60
2021/08/23 04:45:20;;;;;;;;;;;;;;;16.33;80.84;99965.88;5034430;28;870;-60
2021/08/23 04:47:46;;;;;;;;;;;;;;;16.54;80.02;99965.31;5033297;28;1882;-60
2021/08/23 04:50:13;;;;;;;;;;;;;;;16.75;79.26;99963.16;5034276;28;847;-59
2021/08/23 04:52:43;;;;;;;;;;;;;;;16.97;78.20;99968.94;5034181;28;860;-60
2021/08/23 04:55:10;;;;;;;;;;;;;;;17.20;77.46;99967.09;5034354;28;1036;-60
2021/08/23 04:57:37;;;;;;;;;;;;;;;17.42;76.87;99956.06;5034289;28;853;-60
2021/08/23 05:00:07;;;;;;;;;;;;;;;17.65;75.90;99957.75;5034182;28;918;-60
2021/08/23 05:02:33;;;;;;;;;;;;;;;17.86;74.67;99945.13;5033222;28;815;-60
2021/08/23 05:04:59;;;;;;;;;;;;;;;18.07;74.28;99941.63;5034123;28;814;-60
2021/08/23 05:07:26;;;;;;;;;;;;;;;18.31;73.70;99949.63;5033940;28;1956;-60
2021/08/23 05:15:14;;;;;;;;;;;;;;;18.95;71.44;99947.38;5962833;22;1642;-60
2021/08/23 05:17:41;;;;;;;;;;;;;;;19.12;71.01;99952.75;5034205;28;821;-60
2021/08/23 05:20:07;;;;;;;;;;;;;;;19.31;70.05;99953.63;5034082;28;813;-60
2021/08/23 05:22:36;;;;;;;;;;;;;;;19.47;69.27;99942.19;5033817;28;829;-59
2021/08/23 05:25:02;;;;;;;;;;;;;;;19.81;68.47;99945.31;5033865;28;857;-60
2021/08/23 05:27:30;;;;;;;;;;;;;;;20.38;67.00;99945.72;5033913;28;1917;-60
2021/08/23 05:29:59;;;;;;;;;;;;;;;21.31;64.02;99950.00;5033886;28;866;-60
2021/08/23 05:32:26;;;;;;;;;;;;;;;22.02;61.58;99950.66;5033629;28;871;-60
2021/08/23 05:34:53;;;;;;;;;;;;;;;22.32;61.01;99948.78;5033550;28;790;-60
2021/08/23 05:37:20;;;;;;;;;;;;;;;22.44;59.83;99946.94;5033510;28;849;-60
2021/08/23 05:39:47;;;;;;;;;;;;;;;22.41;59.67;99945.09;5033369;28;910;-60
2021/08/23 05:42:14;;;;;;;;;;;;;;;22.40;59.40;99937.91;5033430;28;806;-60
2021/08/23 05:44:44;;;;;;;;;;;;;;;22.58;58.56;99949.03;5033331;28;810;-60
2021/08/23 05:47:10;;;;;;;;;;;;;;;23.01;57.27;99931.91;5033531;28;1918;-60
2021/08/23 05:49:37;;;;;;;;;;;;;;;23.77;55.93;99936.97;5033255;28;822;-60
2021/08/23 05:52:04;;;;;;;;;;;;;;;24.78;52.58;99926.19;5033226;28;882;-60
2021/08/23 05:54:31;;;;;;;;;;;;;;;25.74;50.06;99936.28;5033164;28;807;-60
2021/08/23 05:56:58;;;;;;;;;;;;;;;26.42;49.19;99937.41;5033152;28;846;-60
2021/08/23 05:59:25;;;;;;;;;;;;;;;27.18;47.30;99926.47;5033120;28;973;-60
2021/08/23 06:01:54;;;;;;;;;;;;;;;27.68;46.05;99925.72;5032966;28;799;-60
2021/08/23 06:04:24;;;;;;;;;;;;;;;27.61;45.49;99924.19;5033019;28;778;-60
2021/08/23 06:06:51;;;;;;;;;;;;;;;27.46;45.44;99926.50;5032987;28;963;-60
2021/08/23 06:09:19;;;;;;;;;;;;;;;27.68;44.71;99926.47;5032671;28;1882;-60
2021/08/23 06:11:46;;;;;;;;;;;;;;;28.25;43.90;99934.84;5032916;28;857;-60
2021/08/23 06:14:13;;;;;;;;;;;;;;;29.05;42.39;99928.22;5032686;28;877;-61
2021/08/23 06:16:40;;;;;;;;;;;;;;;29.62;40.72;99942.75;5031386;28;1225;-61
2021/08/23 06:19:07;;;;;;;;;;;;;;;30.12;38.58;99938.59;5032670;28;858;-61
2021/08/23 06:21:34;;;;;;;;;;;;;;;30.50;38.60;99938.69;5032646;28;901;-61
2021/08/23 06:24:02;;;;;;;;;;;;;;;30.75;37.12;99938.63;5032519;28;931;-61
2021/08/23 06:26:28;;;;;;;;;;;;;;;31.12;37.47;99943.50;5032836;28;845;-61
2021/08/23 06:28:55;;;;;;;;;;;;;;;31.31;36.43;99957.72;5032477;28;1963;-61
2021/08/23 06:31:23;;;;;;;;;;;;;;;31.55;35.68;99956.06;5032536;28;835;-61
2021/08/23 06:33:50;;;;;;;;;;;;;;;31.37;35.53;99957.66;5032574;28;850;-61
2021/08/23 06:36:16;;;;;;;;;;;;;;;31.21;35.92;99950.13;5032347;28;806;-61
2021/08/23 06:38:43;;;;;;;;;;;;;;;31.26;36.40;99952.91;5032372;28;901;-61
2021/08/23 06:41:19;;;;;;;;;;;;;;;31.53;34.97;99956.59;5032250;28;827;-61
2021/08/23 06:43:45;;;;;;;;;;;;;;;31.43;34.99;99954.72;5032917;28;822;-61
2021/08/23 06:46:12;;;;;;;;;;;;;;;31.32;35.54;99955.63;5032123;28;802;-61
2021/08/23 06:48:39;;;;;;;;;;;;;;;31.39;34.91;99952.16;5032051;28;1882;-61
2021/08/23 06:51:05;;;;;;;;;;;;;;;31.62;34.24;99946.88;5032143;28;877;-62
2021/08/23 06:53:33;;;;;;;;;;;;;;;31.83;34.99;99949.06;5032013;28;845;-61
2021/08/23 06:55:59;;;;;;;;;;;;;;;32.13;32.81;99943.03;5032111;28;889;-61
2021/08/23 06:58:25;;;;;;;;;;;;;;;32.28;33.34;99954.69;5031937;28;827;-61
2021/08/23 07:00:52;;;;;;;;;;;;;;;32.40;32.86;99954.47;5031954;28;806;-61
2021/08/23 07:03:18;;;;;;;;;;;;;;;32.58;32.76;99953.56;5031888;28;834;-61
2021/08/23 07:05:45;;;;;;;;;;;;;;;32.89;32.15;99956.78;5031980;28;897;-62
2021/08/23 07:08:13;;;;;;;;;;;;;;;32.74;31.56;99960.25;5031745;28;1882;-62
2021/08/23 07:10:41;;;;;;;;;;;;;;;32.36;31.82;99963.38;5031869;28;877;-61
2021/08/23 07:13:07;;;;;;;;;;;;;;;32.39;32.31;99975.78;5031905;28;879;-61
2021/08/23 07:15:33;;;;;;;;;;;;;;;32.52;32.48;99970.06;5031592;28;1197;-61
2021/08/23 07:18:00;;;;;;;;;;;;;;;32.75;31.84;99958.91;5031764;28;885;-61
2021/08/23 07:20:26;;;;;;;;;;;;;;;32.90;32.31;99955.44;5031712;28;904;-62
2021/08/23 07:22:53;;;;;;;;;;;;;;;33.01;31.88;99951.53;5031680;28;829;-61
2021/08/23 07:25:20;;;;;;;;;;;;;;;32.80;32.23;99963.00;5031211;28;818;-61
2021/08/23 07:27:47;;;;;;;;;;;;;;;32.77;32.11;99953.41;5031696;28;1910;-61
2021/08/23 07:30:14;;;;;;;;;;;;;;;32.74;31.98;99955.28;5031578;28;909;-61
2021/08/23 07:32:43;;;;;;;;;;;;;;;33.05;31.81;99958.50;5031894;28;806;-62
2021/08/23 07:35:09;;;;;;;;;;;;;;;33.03;32.31;99948.91;5031532;28;870;-61
2021/08/23 07:37:42;;;;;;;;;;;;;;;33.29;31.69;99950.91;5031506;28;798;-61
2021/08/23 07:40:09;;;;;;;;;;;;;;;33.50;30.89;99942.28;5031657;28;794;-61
2021/08/23 07:42:35;;;;;;;;;;;;;;;34.03;30.28;99953.38;5031565;28;870;-61
2021/08/23 07:45:02;;;;;;;;;;;;;;;34.33;28.91;99952.03;5031780;28;889;-61
2021/08/23 07:47:29;;;;;;;;;;;;;;;34.27;29.02;99945.69;5031569;28;1973;-61
2021/08/23 07:49:56;;;;;;;;;;;;;;;34.26;28.93;99944.19;5031724;28;803;-61
2021/08/23 07:52:22;;;;;;;;;;;;;;;33.81;28.84;99949.03;5031841;28;913;-60
2021/08/23 07:54:49;;;;;;;;;;;;;;;33.64;29.43;99951.59;5031504;28;799;-61
2021/08/23 07:57:16;;;;;;;;;;;;;;;33.84;28.91;99945.06;5031406;28;909;-61
2021/08/23 07:59:42;;;;;;;;;;;;;;;33.91;28.65;99944.34;5031433;28;865;-61
2021/08/23 08:02:09;;;;;;;;;;;;;;;33.54;29.88;99954.16;5031597;28;817;-60
2021/08/23 08:04:37;;;;;;;;;;;;;;;33.27;28.63;99950.72;5031206;28;887;-61
2021/08/23 08:07:03;;;;;;;;;;;;;;;33.38;29.58;99943.94;5031561;28;866;-61
2021/08/23 08:09:30;;;;;;;;;;;;;;;33.60;29.24;99951.19;5031358;28;1890;-61
2021/08/23 08:11:56;;;;;;;;;;;;;;;33.92;28.79;99945.88;5031097;28;965;-62
2021/08/23 08:14:23;;;;;;;;;;;;;;;33.89;28.54;99954.84;5031052;28;1129;-61
2021/08/23 08:16:49;;;;;;;;;;;;;;;33.92;28.04;99945.88;5030884;28;1213;-60
2021/08/23 08:19:15;;;;;;;;;;;;;;;33.40;27.28;99952.72;5029905;28;845;-63
2021/08/23 08:21:41;;;;;;;;;;;;;;;33.17;27.87;99952.50;5031051;28;921;-62
2021/08/23 08:24:08;;;;;;;;;;;;;;;33.44;27.40;99939.59;5031174;28;853;-63
2021/08/23 08:26:35;;;;;;;;;;;;;;;33.35;27.43;99943.72;5031095;28;787;-61
2021/08/23 08:29:01;;;;;;;;;;;;;;;33.61;28.09;99947.78;5030992;28;1909;-61
2021/08/23 08:31:29;;;;;;;;;;;;;;;33.71;28.61;99951.66;5030965;28;893;-61
2021/08/23 08:33:55;;;;;;;;;;;;;;;33.69;27.19;99930.63;5030988;28;846;-61
2021/08/23 08:36:22;;;;;;;;;;;;;;;33.56;26.47;99934.31;5030938;28;846;-63
2021/08/23 08:38:49;;;;;;;;;;;;;;;33.31;27.27;99928.22;5034608;28;861;-62
2021/08/23 08:41:16;;;;;;;;;;;;;;;33.29;28.04;99925.91;5034470;28;810;-61
2021/08/23 08:43:43;;;;;;;;;;;;;;;33.22;28.08;99940.91;5034519;28;889;-62
2021/08/23 08:46:11;;;;;;;;;;;;;;;33.08;28.09;99928.75;5034625;28;941;-62
2021/08/23 08:48:37;;;;;;;;;;;;;;;33.08;27.84;99919.41;5034564;28;1886;-62
2021/08/23 08:51:04;;;;;;;;;;;;;;;33.34;28.21;99910.66;5034682;28;798;-61
2021/08/23 08:53:30;;;;;;;;;;;;;;;33.62;27.66;99920.63;5034277;28;877;-62
2021/08/23 08:55:56;;;;;;;;;;;;;;;33.45;28.32;99906.72;5034341;28;849;-61
2021/08/23 08:58:25;;;;;;;;;;;;;;;33.32;28.96;99913.31;5034363;28;806;-62
2021/08/23 09:00:51;;;;;;;;;;;;;;;33.00;29.40;99905.00;5034246;28;872;-61
2021/08/23 09:03:27;;;;;;;;;;;;;;;33.05;29.45;99894.72;5034148;28;814;-61
2021/08/23 09:06:06;;;;;;;;;;;;;;;33.14;29.50;99906.50;5034399;28;798;-62
2021/08/23 09:08:40;;;;;;;;;;;;;;;33.29;29.78;99914.44;5033973;28;1890;-61
2021/08/23 09:11:13;;;;;;;;;;;;;;;33.35;29.20;99903.63;5034025;28;862;-61
2021/08/23 09:13:40;;;;;;;;;;;;;;;33.26;29.31;99892.63;5033985;28;786;-63
2021/08/23 09:16:07;;;;;;;;;;;;;;;33.16;29.03;99903.06;5033781;28;1177;-61
2021/08/23 09:18:35;;;;;;;;;;;;;;;33.42;28.19;99907.88;5033951;28;818;-61
2021/08/23 09:21:03;;;;;;;;;;;;;;;33.33;27.80;99889.09;5034148;28;814;-61
2021/08/23 09:23:36;;;;;;;;;;;;;;;33.33;28.56;99891.94;5032553;28;1368;-61
2021/08/23 09:26:06;;;;;;;;;;;;;;;33.42;27.97;99895.66;5033788;28;865;-61
2021/08/23 09:28:32;;;;;;;;;;;;;;;33.39;27.95;99896.75;5033548;28;2036;-62
2021/08/23 09:30:59;;;;;;;;;;;;;;;32.95;28.56;99894.44;5033643;28;822;-62
2021/08/23 09:33:25;;;;;;;;;;;;;;;32.71;28.33;99890.59;5033551;28;873;-62
2021/08/23 09:35:52;;;;;;;;;;;;;;;32.22;29.33;99884.66;5033673;28;838;-62
2021/08/23 09:38:19;;;;;;;;;;;;;;;31.54;28.38;99883.91;5033405;28;866;-62
2021/08/23 09:40:47;;;;;;;;;;;;;;;30.53;30.09;99886.28;5033369;28;806;-62
2021/08/23 09:43:16;;;;;;;;;;;;;;;30.37;30.73;99883.69;5033577;28;861;-62
2021/08/23 09:45:49;;;;;;;;;;;;;;;30.79;30.13;99882.03;5033402;28;865;-61
2021/08/23 09:48:17;;;;;;;;;;;;;;;31.41;30.48;99883.06;5032969;28;1889;-62
2021/08/23 09:50:50;;;;;;;;;;;;;;;31.62;29.93;99877.50;5033282;28;861;-61
2021/08/23 09:53:20;;;;;;;;;;;;;;;31.78;30.43;99878.53;5033228;28;870;-62
2021/08/23 09:55:48;;;;;;;;;;;;;;;31.84;30.15;99874.22;5033137;28;834;-61
2021/08/23 09:58:15;;;;;;;;;;;;;;;31.71;30.86;99882.81;5033100;28;774;-63
2021/08/23 10:00:42;;;;;;;;;;;;;;;31.76;30.72;99881.16;5033054;28;845;-61
2021/08/23 10:03:14;;;;;;;;;;;;;;;31.59;30.21;99858.63;5033064;28;826;-63
2021/08/23 10:05:44;;;;;;;;;;;;;;;31.77;29.62;99874.13;5031652;28;1191;-62
2021/08/23 10:08:19;;;;;;;;;;;;;;;32.20;27.68;99867.28;5033202;28;1890;-62
2021/08/23 10:10:46;;;;;;;;;;;;;;;32.09;27.87;99868.28;5032725;28;900;-61
2021/08/23 10:13:14;;;;;;;;;;;;;;;32.39;28.60;99861.41;5032847;28;865;-61
2021/08/23 10:15:41;;;;;;;;;;;;;;;32.70;27.53;99853.94;5032645;28;1202;-62
2021/08/23 10:18:08;;;;;;;;;;;;;;;32.89;28.02;99868.81;5033057;28;826;-62
2021/08/23 10:20:36;;;;;;;;;;;;;;;32.86;27.28;99866.28;5032728;28;807;-61
2021/08/23 10:23:03;;;;;;;;;;;;;;;32.79;27.29;99858.41;5032609;28;837;-62
2021/08/23 10:25:30;;;;;;;;;;;;;;;32.49;27.45;99865.31;5032582;28;830;-62
2021/08/23 10:28:12;;;;;;;;;;;;;;;32.76;27.37;99866.03;5032528;28;1914;-61
2021/08/23 10:30:39;;;;;;;;;;;;;;;33.10;27.13;99851.69;5032428;28;827;-61
2021/08/23 10:33:16;;;;;;;;;;;;;;;33.53;26.95;99840.91;5032497;28;949;-62
2021/08/23 10:35:49;;;;;;;;;;;;;;;33.88;26.28;99845.13;5032556;28;934;-62
2021/08/23 10:38:17;;;;;;;;;;;;;;;33.72;27.14;99849.25;5032742;28;776;-62
2021/08/23 10:40:44;;;;;;;;;;;;;;;33.73;26.84;99850.78;5032413;28;835;-62
2021/08/23 10:43:15;;;;;;;;;;;;;;;33.40;25.96;99844.66;5033073;28;771;-62
2021/08/23 10:45:42;;;;;;;;;;;;;;;33.41;26.66;99837.56;5030964;28;1270;-61
2021/08/23 10:48:15;;;;;;;;;;;;;;;33.40;26.66;99838.91;5032097;28;1890;-62
2021/08/23 10:50:41;;;;;;;;;;;;;;;33.45;26.60;99840.09;5032207;28;791;-62
2021/08/23 10:53:12;;;;;;;;;;;;;;;33.34;26.70;99833.31;5032207;28;842;-62
2021/08/23 10:55:40;;;;;;;;;;;;;;;33.41;25.76;99837.56;5032057;28;876;-62
2021/08/23 10:58:08;;;;;;;;;;;;;;;33.64;26.08;99832.00;5032033;28;962;-62
2021/08/23 11:00:42;;;;;;;;;;;;;;;33.66;25.75;99842.91;5031326;28;867;-63
2021/08/23 11:03:09;;;;;;;;;;;;;;;33.42;25.42;99836.25;5032173;28;786;-62
2021/08/23 11:05:37;;;;;;;;;;;;;;;33.28;25.37;99829.09;5030713;28;937;-62
2021/08/23 11:08:09;;;;;;;;;;;;;;;32.91;26.57;99836.78;5031771;28;1893;-62
2021/08/23 11:10:38;;;;;;;;;;;;;;;32.76;26.62;99825.97;5031785;28;803;-63
2021/08/23 11:13:16;;;;;;;;;;;;;;;32.44;26.58;99814.75;5031706;28;893;-63
2021/08/23 11:15:43;;;;;;;;;;;;;;;32.70;27.29;99828.19;5031702;28;1290;-62
2021/08/23 11:18:09;;;;;;;;;;;;;;;32.87;25.36;99825.69;5031793;28;862;-63
2021/08/23 11:20:52;;;;;;;;;;;;;;;32.78;25.79;99834.75;5031625;28;1097;-62
2021/08/23 11:23:23;;;;;;;;;;;;;;;32.87;26.21;99819.19;5031616;28;885;-62
2021/08/23 11:25:51;;;;;;;;;;;;;;;33.13;26.33;99807.59;5031628;28;854;-62
2021/08/23 11:28:22;;;;;;;;;;;;;;;33.35;25.97;99811.19;5030252;28;2027;-62
2021/08/23 11:30:50;;;;;;;;;;;;;;;33.19;26.51;99821.00;5031665;28;799;-63
2021/08/23 11:33:27;;;;;;;;;;;;;;;33.02;25.53;99813.59;5031550;28;873;-62
2021/08/23 11:35:56;;;;;;;;;;;;;;;33.11;26.45;99815.97;5031454;28;962;-62
2021/08/23 11:38:29;;;;;;;;;;;;;;;33.48;25.46;99819.69;5031472;28;857;-63
2021/08/23 11:40:56;;;;;;;;;;;;;;;33.57;25.16;99809.81;5031984;28;810;-62
2021/08/23 11:43:32;;;;;;;;;;;;;;;33.54;24.93;99808.84;5030381;28;807;-62
2021/08/23 11:45:59;;;;;;;;;;;;;;;32.89;25.37;99810.81;5031364;28;993;-62
2021/08/23 11:48:26;;;;;;;;;;;;;;;32.18;26.36;99802.09;5031674;28;1890;-62
2021/08/23 11:50:53;;;;;;;;;;;;;;;32.43;25.97;99802.53;5031374;28;888;-62
2021/08/23 11:53:23;;;;;;;;;;;;;;;32.69;25.34;99801.69;5031389;28;830;-63
2021/08/23 11:55:50;;;;;;;;;;;;;;;32.84;25.22;99797.41;5031274;28;878;-62
2021/08/23 11:58:19;;;;;;;;;;;;;;;33.09;25.50;99783.50;5031517;28;920;-62
2021/08/23 12:00:58;;;;;;;;;;;;;;;33.72;24.57;99784.13;5031299;28;866;-62
2021/08/23 12:03:25;;;;;;;;;;;;;;;34.10;24.55;99806.44;5031337;28;909;-63
2021/08/23 12:05:51;;;;;;;;;;;;;;;33.84;24.35;99801.75;5031284;28;822;-63
2021/08/23 12:08:26;;;;;;;;;;;;;;;33.88;24.34;99801.38;5031042;28;1965;-63
2021/08/23 12:10:56;;;;;;;;;;;;;;;33.86;23.96;99798.31;5032023;28;1010;-62
2021/08/23 12:13:24;;;;;;;;;;;;;;;34.05;24.17;99803.72;5035059;28;901;-62
2021/08/23 12:16:01;;;;;;;;;;;;;;;33.26;25.39;99809.59;5035102;28;1214;-63
2021/08/23 12:18:30;;;;;;;;;;;;;;;32.55;26.13;99795.25;5034951;28;935;-63
2021/08/23 12:21:23;;;;;;;;;;;;;;;32.58;26.17;99801.94;5035024;28;822;-63
2021/08/23 12:24:03;;;;;;;;;;;;;;;33.08;25.64;99799.16;5032317;28;1022;-62
2021/08/23 12:26:35;;;;;;;;;;;;;;;33.79;24.58;99796.94;5034929;28;819;-62
2021/08/23 12:29:16;;;;;;;;;;;;;;;34.10;24.28;99797.84;5034683;28;1973;-63
2021/08/23 12:31:49;;;;;;;;;;;;;;;34.17;23.49;99788.50;5034954;28;810;-62
2021/08/23 12:34:17;;;;;;;;;;;;;;;34.14;23.87;99798.25;5034962;28;818;-62
2021/08/23 12:36:44;;;;;;;;;;;;;;;33.96;24.16;99782.88;5034953;28;890;-63
2021/08/23 12:39:11;;;;;;;;;;;;;;;33.96;24.59;99799.31;5034556;28;787;-63
2021/08/23 12:41:40;;;;;;;;;;;;;;;34.55;23.93;99798.53;5034641;28;811;-63
2021/08/23 12:44:07;;;;;;;;;;;;;;;34.77;23.27;99788.44;5034541;28;948;-62
2021/08/23 12:46:33;;;;;;;;;;;;;;;34.55;22.86;99792.81;5034412;28;993;-62
2021/08/23 12:49:00;;;;;;;;;;;;;;;34.68;23.36;99784.03;5034450;28;858;-62
2021/08/23 12:51:27;;;;;;;;;;;;;;;35.05;22.98;99789.56;5034392;28;839;-62
2021/08/23 12:53:55;;;;;;;;;;;;;;;35.16;23.25;99786.34;5034414;28;822;-63
2021/08/23 12:56:21;;;;;;;;;;;;;;;35.08;22.51;99776.94;5034223;28;866;-63
2021/08/23 12:58:48;;;;;;;;;;;;;;;34.92;23.24;99784.81;5032889;28;1918;-62
2021/08/23 13:01:16;;;;;;;;;;;;;;;34.75;22.81;99771.78;5034162;28;888;-62
2021/08/23 13:03:43;;;;;;;;;;;;;;;34.57;23.36;99781.50;5034206;28;791;-63
2021/08/23 13:06:10;;;;;;;;;;;;;;;34.71;23.13;99780.00;5034185;28;897;-62
2021/08/23 13:08:37;;;;;;;;;;;;;;;34.74;23.67;99781.75;5033866;28;921;-62
2021/08/23 13:11:04;;;;;;;;;;;;;;;35.07;23.27;99784.78;5034066;28;818;-62
2021/08/23 13:13:31;;;;;;;;;;;;;;;34.84;23.46;99775.41;5033954;28;882;-62